sensor_id;sensor_type;location;lat;lon;timestamp;P1;durP1;ratioP1;P2;durP2;ratioP2
42104;SDS011;70664;51.472;5.712;2024-03-06T00:01:05;5.38;;;3.10;;
42104;SDS011;70664;51.472;5.712;2024-03-06T00:03:31;6.75;;;2.80;;
42104;SDS011;70664;51.472;5.712;2024-03-06T00:05:57;5.03;;;3.13;;
42104;SDS011;70664;51.472;5.712;2024-03-06T00:08:23;6.18;;;2.88;;
42104;SDS011;70664;51.472;5.712;2024-03-06T00:10:51;7.00;;;2.70;;
42104;SDS011;70664;51.472;5.712;2024-03-06T00:13:17;5.18;;;2.67;;
42104;SDS011;70664;51.472;5.712;2024-03-06T00:15:42;6.10;;;2.75;;
42104;SDS011;70664;51.472;5.712;2024-03-06T00:18:08;7.90;;;3.13;;
42104;SDS011;70664;51.472;5.712;2024-03-06T00:20:35;4.63;;;2.50;;
42104;SDS011;70664;51.472;5.712;2024-03-06T00:23:00;6.03;;;2.80;;
42104;SDS011;70664;51.472;5.712;2024-03-06T00:25:27;5.28;;;3.05;;
42104;SDS011;70664;51.472;5.712;2024-03-06T00:27:57;5.00;;;2.92;;
42104;SDS011;70664;51.472;5.712;2024-03-06T00:30:26;5.82;;;2.90;;
42104;SDS011;70664;51.472;5.712;2024-03-06T00:32:54;5.63;;;2.67;;
42104;SDS011;70664;51.472;5.712;2024-03-06T00:35:20;5.10;;;2.65;;
42104;SDS011;70664;51.472;5.712;2024-03-06T00:37:46;6.38;;;2.80;;
42104;SDS011;70664;51.472;5.712;2024-03-06T00:40:12;5.70;;;2.72;;
42104;SDS011;70664;51.472;5.712;2024-03-06T00:42:38;4.05;;;2.42;;
42104;SDS011;70664;51.472;5.712;2024-03-06T00:45:06;5.05;;;2.60;;
42104;SDS011;70664;51.472;5.712;2024-03-06T00:47:32;5.80;;;2.60;;
42104;SDS011;70664;51.472;5.712;2024-03-06T00:49:59;5.90;;;2.90;;
42104;SDS011;70664;51.472;5.712;2024-03-06T00:52:25;6.57;;;2.65;;
42104;SDS011;70664;51.472;5.712;2024-03-06T00:54:52;6.40;;;2.83;;
42104;SDS011;70664;51.472;5.712;2024-03-06T00:57:18;4.80;;;2.70;;
42104;SDS011;70664;51.472;5.712;2024-03-06T00:59:45;5.30;;;2.85;;
42104;SDS011;70664;51.472;5.712;2024-03-06T01:02:11;4.78;;;2.63;;
42104;SDS011;70664;51.472;5.712;2024-03-06T01:04:40;4.53;;;2.67;;
42104;SDS011;70664;51.472;5.712;2024-03-06T01:07:06;5.75;;;2.80;;
42104;SDS011;70664;51.472;5.712;2024-03-06T01:09:32;5.85;;;2.92;;
42104;SDS011;70664;51.472;5.712;2024-03-06T01:11:58;7.55;;;2.90;;
42104;SDS011;70664;51.472;5.712;2024-03-06T01:14:23;4.18;;;2.72;;
42104;SDS011;70664;51.472;5.712;2024-03-06T01:16:49;4.18;;;2.60;;
42104;SDS011;70664;51.472;5.712;2024-03-06T01:19:15;7.85;;;2.70;;
42104;SDS011;70664;51.472;5.712;2024-03-06T01:21:41;6.60;;;2.65;;
42104;SDS011;70664;51.472;5.712;2024-03-06T01:24:06;4.03;;;2.70;;
42104;SDS011;70664;51.472;5.712;2024-03-06T01:26:32;6.32;;;2.67;;
42104;SDS011;70664;51.472;5.712;2024-03-06T01:28:58;5.28;;;2.78;;
42104;SDS011;70664;51.472;5.712;2024-03-06T01:31:24;5.05;;;3.00;;
42104;SDS011;70664;51.472;5.712;2024-03-06T01:33:49;4.22;;;2.70;;
42104;SDS011;70664;51.472;5.712;2024-03-06T01:36:15;5.05;;;2.28;;
42104;SDS011;70664;51.472;5.712;2024-03-06T01:38:41;4.80;;;2.65;;
42104;SDS011;70664;51.472;5.712;2024-03-06T01:41:10;5.35;;;2.90;;
42104;SDS011;70664;51.472;5.712;2024-03-06T01:43:39;4.25;;;2.65;;
42104;SDS011;70664;51.472;5.712;2024-03-06T01:46:04;5.25;;;2.80;;
42104;SDS011;70664;51.472;5.712;2024-03-06T01:48:31;3.97;;;2.70;;
42104;SDS011;70664;51.472;5.712;2024-03-06T01:50:59;5.65;;;2.70;;
42104;SDS011;70664;51.472;5.712;2024-03-06T01:53:29;3.90;;;2.53;;
42104;SDS011;70664;51.472;5.712;2024-03-06T01:55:58;5.22;;;2.75;;
42104;SDS011;70664;51.472;5.712;2024-03-06T01:58:25;4.68;;;2.53;;
42104;SDS011;70664;51.472;5.712;2024-03-06T02:00:52;3.42;;;2.40;;
42104;SDS011;70664;51.472;5.712;2024-03-06T02:03:20;4.50;;;3.13;;
42104;SDS011;70664;51.472;5.712;2024-03-06T02:05:53;5.00;;;2.70;;
42104;SDS011;70664;51.472;5.712;2024-03-06T02:08:26;6.40;;;2.97;;
42104;SDS011;70664;51.472;5.712;2024-03-06T02:10:52;4.45;;;2.60;;
42104;SDS011;70664;51.472;5.712;2024-03-06T02:15:58;7.40;;;2.95;;
42104;SDS011;70664;51.472;5.712;2024-03-06T02:18:25;5.03;;;2.70;;
42104;SDS011;70664;51.472;5.712;2024-03-06T02:20:50;4.25;;;2.85;;
42104;SDS011;70664;51.472;5.712;2024-03-06T02:23:16;7.45;;;2.40;;
42104;SDS011;70664;51.472;5.712;2024-03-06T02:25:47;4.18;;;2.67;;
42104;SDS011;70664;51.472;5.712;2024-03-06T02:28:13;4.20;;;2.80;;
42104;SDS011;70664;51.472;5.712;2024-03-06T02:30:39;4.22;;;2.80;;
42104;SDS011;70664;51.472;5.712;2024-03-06T02:33:05;4.03;;;2.53;;
42104;SDS011;70664;51.472;5.712;2024-03-06T02:35:33;3.65;;;2.72;;
42104;SDS011;70664;51.472;5.712;2024-03-06T02:38:01;3.53;;;2.50;;
42104;SDS011;70664;51.472;5.712;2024-03-06T02:40:30;3.85;;;2.50;;
42104;SDS011;70664;51.472;5.712;2024-03-06T02:42:57;4.57;;;3.08;;
42104;SDS011;70664;51.472;5.712;2024-03-06T02:45:22;3.75;;;2.70;;
42104;SDS011;70664;51.472;5.712;2024-03-06T02:47:48;4.50;;;2.58;;
42104;SDS011;70664;51.472;5.712;2024-03-06T02:50:14;4.13;;;2.72;;
42104;SDS011;70664;51.472;5.712;2024-03-06T02:52:41;3.95;;;2.50;;
42104;SDS011;70664;51.472;5.712;2024-03-06T02:55:06;4.28;;;2.75;;
42104;SDS011;70664;51.472;5.712;2024-03-06T02:57:32;5.35;;;2.88;;
42104;SDS011;70664;51.472;5.712;2024-03-06T02:59:59;4.28;;;2.85;;
42104;SDS011;70664;51.472;5.712;2024-03-06T03:02:24;4.38;;;2.83;;
42104;SDS011;70664;51.472;5.712;2024-03-06T03:04:51;3.28;;;2.38;;
42104;SDS011;70664;51.472;5.712;2024-03-06T03:07:17;4.53;;;2.70;;
42104;SDS011;70664;51.472;5.712;2024-03-06T03:09:46;3.75;;;2.80;;
42104;SDS011;70664;51.472;5.712;2024-03-06T03:12:12;3.22;;;2.53;;
42104;SDS011;70664;51.472;5.712;2024-03-06T03:14:42;4.45;;;2.78;;
42104;SDS011;70664;51.472;5.712;2024-03-06T03:17:08;3.83;;;2.60;;
42104;SDS011;70664;51.472;5.712;2024-03-06T03:19:34;4.68;;;2.80;;
42104;SDS011;70664;51.472;5.712;2024-03-06T03:22:00;4.70;;;2.92;;
42104;SDS011;70664;51.472;5.712;2024-03-06T03:24:29;4.53;;;2.45;;
42104;SDS011;70664;51.472;5.712;2024-03-06T03:26:55;4.20;;;2.80;;
42104;SDS011;70664;51.472;5.712;2024-03-06T03:29:21;3.97;;;2.65;;
42104;SDS011;70664;51.472;5.712;2024-03-06T03:31:47;3.72;;;2.67;;
42104;SDS011;70664;51.472;5.712;2024-03-06T03:34:13;4.20;;;2.90;;
42104;SDS011;70664;51.472;5.712;2024-03-06T03:36:42;4.63;;;2.63;;
42104;SDS011;70664;51.472;5.712;2024-03-06T03:39:12;3.13;;;2.50;;
42104;SDS011;70664;51.472;5.712;2024-03-06T03:41:47;4.20;;;2.50;;
42104;SDS011;70664;51.472;5.712;2024-03-06T03:44:14;4.07;;;2.40;;
42104;SDS011;70664;51.472;5.712;2024-03-06T03:46:41;3.88;;;2.97;;
42104;SDS011;70664;51.472;5.712;2024-03-06T03:49:09;4.32;;;2.58;;
42104;SDS011;70664;51.472;5.712;2024-03-06T03:51:35;3.88;;;2.97;;
42104;SDS011;70664;51.472;5.712;2024-03-06T03:54:03;4.05;;;2.70;;
42104;SDS011;70664;51.472;5.712;2024-03-06T03:56:32;3.90;;;2.63;;
42104;SDS011;70664;51.472;5.712;2024-03-06T03:59:01;3.30;;;2.45;;
42104;SDS011;70664;51.472;5.712;2024-03-06T04:01:29;3.88;;;2.58;;
42104;SDS011;70664;51.472;5.712;2024-03-06T04:03:55;4.78;;;2.80;;
42104;SDS011;70664;51.472;5.712;2024-03-06T04:06:21;3.70;;;2.45;;
42104;SDS011;70664;51.472;5.712;2024-03-06T04:08:47;4.85;;;3.20;;
42104;SDS011;70664;51.472;5.712;2024-03-06T04:11:13;3.20;;;2.42;;
42104;SDS011;70664;51.472;5.712;2024-03-06T04:13:39;4.65;;;2.60;;
42104;SDS011;70664;51.472;5.712;2024-03-06T04:16:05;3.55;;;2.47;;
42104;SDS011;70664;51.472;5.712;2024-03-06T04:18:32;3.83;;;2.60;;
42104;SDS011;70664;51.472;5.712;2024-03-06T04:21:04;3.92;;;2.50;;
42104;SDS011;70664;51.472;5.712;2024-03-06T04:23:34;3.35;;;2.67;;
42104;SDS011;70664;51.472;5.712;2024-03-06T04:26:00;3.38;;;2.53;;
42104;SDS011;70664;51.472;5.712;2024-03-06T04:28:26;4.13;;;2.53;;
42104;SDS011;70664;51.472;5.712;2024-03-06T04:30:52;4.63;;;2.72;;
42104;SDS011;70664;51.472;5.712;2024-03-06T04:33:19;4.32;;;2.88;;
42104;SDS011;70664;51.472;5.712;2024-03-06T04:35:45;3.40;;;2.45;;
42104;SDS011;70664;51.472;5.712;2024-03-06T04:38:11;3.42;;;2.30;;
42104;SDS011;70664;51.472;5.712;2024-03-06T04:40:37;4.25;;;2.35;;
42104;SDS011;70664;51.472;5.712;2024-03-06T04:43:02;3.95;;;2.75;;
42104;SDS011;70664;51.472;5.712;2024-03-06T04:45:28;3.63;;;2.58;;
42104;SDS011;70664;51.472;5.712;2024-03-06T04:47:54;3.83;;;2.60;;
42104;SDS011;70664;51.472;5.712;2024-03-06T04:50:20;2.78;;;2.22;;
42104;SDS011;70664;51.472;5.712;2024-03-06T04:52:46;2.88;;;2.47;;
42104;SDS011;70664;51.472;5.712;2024-03-06T04:55:12;4.03;;;2.53;;
42104;SDS011;70664;51.472;5.712;2024-03-06T04:57:43;3.58;;;2.67;;
42104;SDS011;70664;51.472;5.712;2024-03-06T05:00:10;4.55;;;2.53;;
42104;SDS011;70664;51.472;5.712;2024-03-06T05:02:37;3.03;;;2.30;;
42104;SDS011;70664;51.472;5.712;2024-03-06T05:05:03;3.00;;;2.35;;
42104;SDS011;70664;51.472;5.712;2024-03-06T05:07:30;2.78;;;2.25;;
42104;SDS011;70664;51.472;5.712;2024-03-06T05:09:57;3.42;;;2.60;;
42104;SDS011;70664;51.472;5.712;2024-03-06T05:12:27;3.30;;;2.50;;
42104;SDS011;70664;51.472;5.712;2024-03-06T05:14:53;3.28;;;2.55;;
42104;SDS011;70664;51.472;5.712;2024-03-06T05:17:20;3.13;;;2.38;;
42104;SDS011;70664;51.472;5.712;2024-03-06T05:19:47;3.38;;;2.17;;
42104;SDS011;70664;51.472;5.712;2024-03-06T05:22:15;3.20;;;2.25;;
42104;SDS011;70664;51.472;5.712;2024-03-06T05:24:42;3.45;;;2.40;;
42104;SDS011;70664;51.472;5.712;2024-03-06T05:27:08;3.22;;;2.40;;
42104;SDS011;70664;51.472;5.712;2024-03-06T05:29:38;2.80;;;2.20;;
42104;SDS011;70664;51.472;5.712;2024-03-06T05:32:04;2.88;;;2.28;;
42104;SDS011;70664;51.472;5.712;2024-03-06T05:34:32;2.78;;;2.28;;
42104;SDS011;70664;51.472;5.712;2024-03-06T05:36:59;2.90;;;2.28;;
42104;SDS011;70664;51.472;5.712;2024-03-06T05:39:26;2.90;;;2.15;;
42104;SDS011;70664;51.472;5.712;2024-03-06T05:41:55;3.00;;;2.22;;
42104;SDS011;70664;51.472;5.712;2024-03-06T05:44:29;3.00;;;2.38;;
42104;SDS011;70664;51.472;5.712;2024-03-06T05:46:59;2.70;;;2.20;;
42104;SDS011;70664;51.472;5.712;2024-03-06T05:49:27;3.22;;;2.33;;
42104;SDS011;70664;51.472;5.712;2024-03-06T05:51:54;3.10;;;2.38;;
42104;SDS011;70664;51.472;5.712;2024-03-06T05:54:20;2.47;;;2.20;;
42104;SDS011;70664;51.472;5.712;2024-03-06T05:56:50;2.53;;;2.00;;
42104;SDS011;70664;51.472;5.712;2024-03-06T05:59:17;2.85;;;2.20;;
42104;SDS011;70664;51.472;5.712;2024-03-06T06:01:43;3.20;;;2.20;;
42104;SDS011;70664;51.472;5.712;2024-03-06T06:04:09;2.55;;;1.90;;
42104;SDS011;70664;51.472;5.712;2024-03-06T06:06:36;3.13;;;2.10;;
42104;SDS011;70664;51.472;5.712;2024-03-06T06:09:02;5.47;;;2.17;;
42104;SDS011;70664;51.472;5.712;2024-03-06T06:11:32;2.30;;;2.05;;
42104;SDS011;70664;51.472;5.712;2024-03-06T06:13:58;2.83;;;2.17;;
42104;SDS011;70664;51.472;5.712;2024-03-06T06:16:24;2.97;;;2.13;;
42104;SDS011;70664;51.472;5.712;2024-03-06T06:18:50;2.88;;;2.17;;
42104;SDS011;70664;51.472;5.712;2024-03-06T06:21:16;2.40;;;2.00;;
42104;SDS011;70664;51.472;5.712;2024-03-06T06:23:43;3.90;;;2.20;;
42104;SDS011;70664;51.472;5.712;2024-03-06T06:26:09;2.80;;;2.03;;
42104;SDS011;70664;51.472;5.712;2024-03-06T06:28:40;2.60;;;2.08;;
42104;SDS011;70664;51.472;5.712;2024-03-06T06:31:07;2.53;;;1.98;;
42104;SDS011;70664;51.472;5.712;2024-03-06T06:33:33;2.92;;;2.20;;
42104;SDS011;70664;51.472;5.712;2024-03-06T06:35:59;2.35;;;1.80;;
42104;SDS011;70664;51.472;5.712;2024-03-06T06:38:25;2.22;;;2.00;;
42104;SDS011;70664;51.472;5.712;2024-03-06T06:40:50;2.63;;;2.00;;
42104;SDS011;70664;51.472;5.712;2024-03-06T06:43:17;2.85;;;2.40;;
42104;SDS011;70664;51.472;5.712;2024-03-06T06:45:43;2.58;;;2.10;;
42104;SDS011;70664;51.472;5.712;2024-03-06T06:48:09;3.08;;;1.85;;
42104;SDS011;70664;51.472;5.712;2024-03-06T06:50:35;2.17;;;1.83;;
42104;SDS011;70664;51.472;5.712;2024-03-06T06:53:01;2.55;;;2.00;;
42104;SDS011;70664;51.472;5.712;2024-03-06T06:55:27;2.78;;;2.10;;
42104;SDS011;70664;51.472;5.712;2024-03-06T06:57:53;2.78;;;2.30;;
42104;SDS011;70664;51.472;5.712;2024-03-06T07:00:19;3.47;;;2.25;;
42104;SDS011;70664;51.472;5.712;2024-03-06T07:02:46;3.25;;;2.00;;
42104;SDS011;70664;51.472;5.712;2024-03-06T07:05:12;2.78;;;2.00;;
42104;SDS011;70664;51.472;5.712;2024-03-06T07:07:40;3.70;;;2.30;;
42104;SDS011;70664;51.472;5.712;2024-03-06T07:10:06;3.22;;;1.80;;
42104;SDS011;70664;51.472;5.712;2024-03-06T07:12:33;2.88;;;2.10;;
42104;SDS011;70664;51.472;5.712;2024-03-06T07:15:01;2.20;;;1.88;;
42104;SDS011;70664;51.472;5.712;2024-03-06T07:17:28;2.63;;;2.00;;
42104;SDS011;70664;51.472;5.712;2024-03-06T07:19:53;2.40;;;1.95;;
42104;SDS011;70664;51.472;5.712;2024-03-06T07:22:19;2.38;;;2.00;;
42104;SDS011;70664;51.472;5.712;2024-03-06T07:24:45;2.53;;;1.98;;
42104;SDS011;70664;51.472;5.712;2024-03-06T07:27:11;3.05;;;2.00;;
42104;SDS011;70664;51.472;5.712;2024-03-06T07:29:37;3.20;;;2.10;;
42104;SDS011;70664;51.472;5.712;2024-03-06T07:32:03;2.63;;;2.20;;
42104;SDS011;70664;51.472;5.712;2024-03-06T07:34:32;2.55;;;1.90;;
42104;SDS011;70664;51.472;5.712;2024-03-06T07:36:58;3.08;;;2.17;;
42104;SDS011;70664;51.472;5.712;2024-03-06T07:39:25;2.33;;;2.10;;
42104;SDS011;70664;51.472;5.712;2024-03-06T07:41:51;3.67;;;2.22;;
42104;SDS011;70664;51.472;5.712;2024-03-06T07:44:17;2.33;;;1.95;;
42104;SDS011;70664;51.472;5.712;2024-03-06T07:46:43;2.55;;;2.10;;
42104;SDS011;70664;51.472;5.712;2024-03-06T07:49:09;2.78;;;2.30;;
42104;SDS011;70664;51.472;5.712;2024-03-06T07:51:35;2.95;;;2.10;;
42104;SDS011;70664;51.472;5.712;2024-03-06T07:54:01;2.67;;;2.00;;
42104;SDS011;70664;51.472;5.712;2024-03-06T07:56:29;3.47;;;2.47;;
42104;SDS011;70664;51.472;5.712;2024-03-06T07:58:55;2.90;;;2.13;;
42104;SDS011;70664;51.472;5.712;2024-03-06T08:01:21;2.40;;;2.00;;
42104;SDS011;70664;51.472;5.712;2024-03-06T08:03:47;2.70;;;2.38;;
42104;SDS011;70664;51.472;5.712;2024-03-06T08:06:13;4.35;;;2.38;;
42104;SDS011;70664;51.472;5.712;2024-03-06T08:08:41;2.67;;;2.30;;
42104;SDS011;70664;51.472;5.712;2024-03-06T08:11:09;4.10;;;2.58;;
42104;SDS011;70664;51.472;5.712;2024-03-06T08:13:39;3.30;;;2.33;;
42104;SDS011;70664;51.472;5.712;2024-03-06T08:16:05;2.85;;;1.80;;
42104;SDS011;70664;51.472;5.712;2024-03-06T08:18:32;3.90;;;2.28;;
42104;SDS011;70664;51.472;5.712;2024-03-06T08:20:59;3.50;;;2.30;;
42104;SDS011;70664;51.472;5.712;2024-03-06T08:23:27;2.40;;;1.80;;
42104;SDS011;70664;51.472;5.712;2024-03-06T08:25:53;2.85;;;1.75;;
42104;SDS011;70664;51.472;5.712;2024-03-06T08:28:19;3.38;;;2.20;;
42104;SDS011;70664;51.472;5.712;2024-03-06T08:30:44;4.15;;;2.10;;
42104;SDS011;70664;51.472;5.712;2024-03-06T08:33:10;2.97;;;1.90;;
42104;SDS011;70664;51.472;5.712;2024-03-06T08:35:36;3.95;;;1.70;;
42104;SDS011;70664;51.472;5.712;2024-03-06T08:38:03;3.60;;;2.03;;
42104;SDS011;70664;51.472;5.712;2024-03-06T08:40:29;2.63;;;1.98;;
42104;SDS011;70664;51.472;5.712;2024-03-06T08:42:55;2.63;;;2.05;;
42104;SDS011;70664;51.472;5.712;2024-03-06T08:45:21;2.75;;;1.90;;
42104;SDS011;70664;51.472;5.712;2024-03-06T08:47:50;3.72;;;2.03;;
42104;SDS011;70664;51.472;5.712;2024-03-06T08:50:19;3.03;;;2.10;;
42104;SDS011;70664;51.472;5.712;2024-03-06T08:52:45;3.30;;;1.73;;
42104;SDS011;70664;51.472;5.712;2024-03-06T08:55:12;2.80;;;2.17;;
42104;SDS011;70664;51.472;5.712;2024-03-06T08:57:38;3.20;;;2.33;;
42104;SDS011;70664;51.472;5.712;2024-03-06T09:00:05;3.08;;;1.85;;
42104;SDS011;70664;51.472;5.712;2024-03-06T09:02:36;5.32;;;2.25;;
42104;SDS011;70664;51.472;5.712;2024-03-06T09:05:06;2.35;;;2.10;;
42104;SDS011;70664;51.472;5.712;2024-03-06T09:07:35;2.95;;;2.30;;
42104;SDS011;70664;51.472;5.712;2024-03-06T09:10:06;7.70;;;2.28;;
42104;SDS011;70664;51.472;5.712;2024-03-06T09:12:33;3.45;;;2.30;;
42104;SDS011;70664;51.472;5.712;2024-03-06T09:14:58;3.45;;;2.42;;
42104;SDS011;70664;51.472;5.712;2024-03-06T09:17:26;4.70;;;2.55;;
42104;SDS011;70664;51.472;5.712;2024-03-06T09:19:52;4.43;;;2.35;;
42104;SDS011;70664;51.472;5.712;2024-03-06T09:22:18;9.10;;;2.50;;
42104;SDS011;70664;51.472;5.712;2024-03-06T09:24:44;3.67;;;2.08;;
42104;SDS011;70664;51.472;5.712;2024-03-06T09:27:10;4.18;;;2.53;;
42104;SDS011;70664;51.472;5.712;2024-03-06T09:29:36;4.38;;;2.20;;
42104;SDS011;70664;51.472;5.712;2024-03-06T09:32:01;3.40;;;2.30;;
42104;SDS011;70664;51.472;5.712;2024-03-06T09:34:27;3.28;;;2.45;;
42104;SDS011;70664;51.472;5.712;2024-03-06T09:36:53;3.00;;;2.30;;
42104;SDS011;70664;51.472;5.712;2024-03-06T09:39:19;2.85;;;2.35;;
42104;SDS011;70664;51.472;5.712;2024-03-06T09:41:46;3.03;;;2.13;;
42104;SDS011;70664;51.472;5.712;2024-03-06T09:44:12;2.88;;;2.13;;
42104;SDS011;70664;51.472;5.712;2024-03-06T09:46:43;4.95;;;2.58;;
42104;SDS011;70664;51.472;5.712;2024-03-06T09:49:17;2.75;;;2.28;;
42104;SDS011;70664;51.472;5.712;2024-03-06T09:51:45;2.92;;;2.30;;
42104;SDS011;70664;51.472;5.712;2024-03-06T09:54:13;2.38;;;2.17;;
42104;SDS011;70664;51.472;5.712;2024-03-06T09:56:45;4.30;;;2.78;;
42104;SDS011;70664;51.472;5.712;2024-03-06T09:59:12;4.03;;;2.42;;
42104;SDS011;70664;51.472;5.712;2024-03-06T10:04:21;4.75;;;2.78;;
42104;SDS011;70664;51.472;5.712;2024-03-06T10:06:58;9.18;;;3.75;;
42104;SDS011;70664;51.472;5.712;2024-03-06T10:09:25;3.28;;;2.55;;
42104;SDS011;70664;51.472;5.712;2024-03-06T10:11:52;6.55;;;2.90;;
42104;SDS011;70664;51.472;5.712;2024-03-06T10:14:19;6.78;;;2.65;;
42104;SDS011;70664;51.472;5.712;2024-03-06T10:16:54;3.28;;;2.47;;
42104;SDS011;70664;51.472;5.712;2024-03-06T10:19:25;3.95;;;2.60;;
42104;SDS011;70664;51.472;5.712;2024-03-06T10:21:53;3.75;;;2.90;;
42104;SDS011;70664;51.472;5.712;2024-03-06T10:24:23;6.07;;;2.40;;
42104;SDS011;70664;51.472;5.712;2024-03-06T10:26:51;6.05;;;2.55;;
42104;SDS011;70664;51.472;5.712;2024-03-06T10:29:22;6.22;;;2.40;;
42104;SDS011;70664;51.472;5.712;2024-03-06T10:31:53;5.97;;;2.90;;
42104;SDS011;70664;51.472;5.712;2024-03-06T10:34:22;4.43;;;2.85;;
42104;SDS011;70664;51.472;5.712;2024-03-06T10:37:02;3.63;;;2.60;;
42104;SDS011;70664;51.472;5.712;2024-03-06T10:39:33;3.97;;;2.60;;
42104;SDS011;70664;51.472;5.712;2024-03-06T10:42:03;8.23;;;2.38;;
42104;SDS011;70664;51.472;5.712;2024-03-06T10:44:33;3.95;;;2.50;;
42104;SDS011;70664;51.472;5.712;2024-03-06T10:47:03;5.13;;;2.60;;
42104;SDS011;70664;51.472;5.712;2024-03-06T10:49:31;7.18;;;3.08;;
42104;SDS011;70664;51.472;5.712;2024-03-06T10:52:00;7.80;;;2.70;;
42104;SDS011;70664;51.472;5.712;2024-03-06T10:54:33;4.57;;;2.70;;
42104;SDS011;70664;51.472;5.712;2024-03-06T10:57:00;7.47;;;2.50;;
42104;SDS011;70664;51.472;5.712;2024-03-06T10:59:27;5.20;;;2.80;;
42104;SDS011;70664;51.472;5.712;2024-03-06T11:01:58;4.57;;;2.47;;
42104;SDS011;70664;51.472;5.712;2024-03-06T11:04:28;4.45;;;2.28;;
42104;SDS011;70664;51.472;5.712;2024-03-06T11:06:59;3.45;;;2.45;;
42104;SDS011;70664;51.472;5.712;2024-03-06T11:09:27;4.03;;;2.30;;
42104;SDS011;70664;51.472;5.712;2024-03-06T11:12:00;4.80;;;2.28;;
42104;SDS011;70664;51.472;5.712;2024-03-06T11:14:27;5.13;;;2.58;;
42104;SDS011;70664;51.472;5.712;2024-03-06T11:19:32;4.75;;;2.42;;
42104;SDS011;70664;51.472;5.712;2024-03-06T11:28:19;5.20;;;3.00;;
42104;SDS011;70664;51.472;5.712;2024-03-06T11:30:55;4.45;;;2.53;;
42104;SDS011;70664;51.472;5.712;2024-03-06T11:33:44;4.65;;;2.15;;
42104;SDS011;70664;51.472;5.712;2024-03-06T11:36:16;5.28;;;2.35;;
42104;SDS011;70664;51.472;5.712;2024-03-06T11:39:03;3.15;;;2.40;;
42104;SDS011;70664;51.472;5.712;2024-03-06T11:41:52;3.28;;;2.20;;
42104;SDS011;70664;51.472;5.712;2024-03-06T11:44:18;3.53;;;2.30;;
42104;SDS011;70664;51.472;5.712;2024-03-06T11:46:59;4.18;;;2.10;;
42104;SDS011;70664;51.472;5.712;2024-03-06T11:49:28;3.17;;;2.25;;
42104;SDS011;70664;51.472;5.712;2024-03-06T11:52:06;2.20;;;2.00;;
42104;SDS011;70664;51.472;5.712;2024-03-06T11:54:33;3.28;;;2.15;;
42104;SDS011;70664;51.472;5.712;2024-03-06T11:57:00;3.50;;;2.33;;
42104;SDS011;70664;51.472;5.712;2024-03-06T11:59:33;4.03;;;2.03;;
42104;SDS011;70664;51.472;5.712;2024-03-06T12:02:03;3.28;;;1.98;;
42104;SDS011;70664;51.472;5.712;2024-03-06T12:04:31;4.40;;;2.28;;
42104;SDS011;70664;51.472;5.712;2024-03-06T12:07:04;2.42;;;2.00;;
42104;SDS011;70664;51.472;5.712;2024-03-06T12:09:31;3.10;;;1.92;;
42104;SDS011;70664;51.472;5.712;2024-03-06T12:12:00;3.30;;;2.00;;
42104;SDS011;70664;51.472;5.712;2024-03-06T12:14:27;3.38;;;1.90;;
42104;SDS011;70664;51.472;5.712;2024-03-06T12:16:56;3.08;;;1.90;;
42104;SDS011;70664;51.472;5.712;2024-03-06T12:19:27;3.08;;;1.92;;
42104;SDS011;70664;51.472;5.712;2024-03-06T12:21:59;4.20;;;2.15;;
42104;SDS011;70664;51.472;5.712;2024-03-06T12:24:26;2.22;;;1.73;;
42104;SDS011;70664;51.472;5.712;2024-03-06T12:27:02;3.22;;;1.80;;
42104;SDS011;70664;51.472;5.712;2024-03-06T12:29:31;2.38;;;1.70;;
42104;SDS011;70664;51.472;5.712;2024-03-06T12:32:01;3.45;;;2.00;;
42104;SDS011;70664;51.472;5.712;2024-03-06T12:34:28;3.58;;;1.95;;
42104;SDS011;70664;51.472;5.712;2024-03-06T12:36:56;4.53;;;2.28;;
42104;SDS011;70664;51.472;5.712;2024-03-06T12:39:35;2.35;;;1.77;;
42104;SDS011;70664;51.472;5.712;2024-03-06T12:42:01;2.65;;;2.00;;
42104;SDS011;70664;51.472;5.712;2024-03-06T12:44:27;4.07;;;2.40;;
42104;SDS011;70664;51.472;5.712;2024-03-06T12:46:53;5.03;;;2.13;;
42104;SDS011;70664;51.472;5.712;2024-03-06T12:49:19;3.75;;;2.00;;
42104;SDS011;70664;51.472;5.712;2024-03-06T12:51:44;3.13;;;1.90;;
42104;SDS011;70664;51.472;5.712;2024-03-06T12:54:10;5.60;;;2.20;;
42104;SDS011;70664;51.472;5.712;2024-03-06T12:56:36;2.67;;;1.80;;
42104;SDS011;70664;51.472;5.712;2024-03-06T12:59:02;3.63;;;2.05;;
42104;SDS011;70664;51.472;5.712;2024-03-06T13:01:28;4.47;;;1.90;;
42104;SDS011;70664;51.472;5.712;2024-03-06T13:03:55;5.10;;;2.42;;
42104;SDS011;70664;51.472;5.712;2024-03-06T13:06:22;4.30;;;2.05;;
42104;SDS011;70664;51.472;5.712;2024-03-06T13:08:47;5.20;;;2.00;;
42104;SDS011;70664;51.472;5.712;2024-03-06T13:11:13;4.57;;;1.88;;
42104;SDS011;70664;51.472;5.712;2024-03-06T13:13:39;3.22;;;1.75;;
42104;SDS011;70664;51.472;5.712;2024-03-06T13:16:05;5.47;;;2.13;;
42104;SDS011;70664;51.472;5.712;2024-03-06T13:18:31;3.95;;;2.08;;
42104;SDS011;70664;51.472;5.712;2024-03-06T13:20:56;2.83;;;1.90;;
42104;SDS011;70664;51.472;5.712;2024-03-06T13:23:23;2.08;;;1.60;;
42104;SDS011;70664;51.472;5.712;2024-03-06T13:25:49;2.85;;;1.90;;
42104;SDS011;70664;51.472;5.712;2024-03-06T13:28:15;2.40;;;1.98;;
42104;SDS011;70664;51.472;5.712;2024-03-06T13:30:41;3.50;;;1.90;;
42104;SDS011;70664;51.472;5.712;2024-03-06T13:33:06;3.55;;;1.90;;
42104;SDS011;70664;51.472;5.712;2024-03-06T13:35:32;2.28;;;1.70;;
42104;SDS011;70664;51.472;5.712;2024-03-06T13:37:58;2.40;;;1.80;;
42104;SDS011;70664;51.472;5.712;2024-03-06T13:40:24;4.60;;;1.92;;
42104;SDS011;70664;51.472;5.712;2024-03-06T13:42:52;7.15;;;1.95;;
42104;SDS011;70664;51.472;5.712;2024-03-06T13:45:17;6.40;;;1.98;;
42104;SDS011;70664;51.472;5.712;2024-03-06T13:47:44;3.13;;;1.80;;
42104;SDS011;70664;51.472;5.712;2024-03-06T13:50:14;9.93;;;2.03;;
42104;SDS011;70664;51.472;5.712;2024-03-06T13:52:41;3.53;;;2.50;;
42104;SDS011;70664;51.472;5.712;2024-03-06T13:55:08;6.10;;;2.40;;
42104;SDS011;70664;51.472;5.712;2024-03-06T13:57:35;6.30;;;2.20;;
42104;SDS011;70664;51.472;5.712;2024-03-06T14:00:09;7.30;;;2.38;;
42104;SDS011;70664;51.472;5.712;2024-03-06T14:02:42;8.27;;;2.40;;
42104;SDS011;70664;51.472;5.712;2024-03-06T14:05:12;4.68;;;2.47;;
42104;SDS011;70664;51.472;5.712;2024-03-06T14:07:39;7.13;;;3.10;;
42104;SDS011;70664;51.472;5.712;2024-03-06T14:10:05;7.35;;;2.70;;
42104;SDS011;70664;51.472;5.712;2024-03-06T14:12:35;9.50;;;3.15;;
42104;SDS011;70664;51.472;5.712;2024-03-06T14:15:05;6.60;;;2.70;;
42104;SDS011;70664;51.472;5.712;2024-03-06T14:17:37;7.45;;;2.90;;
42104;SDS011;70664;51.472;5.712;2024-03-06T14:20:03;14.50;;;2.90;;
42104;SDS011;70664;51.472;5.712;2024-03-06T14:22:29;6.75;;;2.50;;
42104;SDS011;70664;51.472;5.712;2024-03-06T14:24:55;10.57;;;2.40;;
42104;SDS011;70664;51.472;5.712;2024-03-06T14:27:22;5.68;;;2.58;;
42104;SDS011;70664;51.472;5.712;2024-03-06T14:29:47;7.50;;;2.42;;
42104;SDS011;70664;51.472;5.712;2024-03-06T14:32:14;8.80;;;2.78;;
42104;SDS011;70664;51.472;5.712;2024-03-06T14:34:43;9.73;;;3.53;;
42104;SDS011;70664;51.472;5.712;2024-03-06T14:37:09;6.53;;;3.08;;
42104;SDS011;70664;51.472;5.712;2024-03-06T14:39:35;5.45;;;2.85;;
42104;SDS011;70664;51.472;5.712;2024-03-06T14:42:01;9.40;;;2.88;;
42104;SDS011;70664;51.472;5.712;2024-03-06T14:44:29;7.13;;;2.65;;
42104;SDS011;70664;51.472;5.712;2024-03-06T14:46:55;6.63;;;2.40;;
42104;SDS011;70664;51.472;5.712;2024-03-06T14:49:22;5.00;;;2.55;;
42104;SDS011;70664;51.472;5.712;2024-03-06T14:51:47;6.13;;;2.30;;
42104;SDS011;70664;51.472;5.712;2024-03-06T14:54:13;9.02;;;2.47;;
42104;SDS011;70664;51.472;5.712;2024-03-06T14:56:40;4.75;;;2.50;;
42104;SDS011;70664;51.472;5.712;2024-03-06T14:59:06;5.00;;;2.50;;
42104;SDS011;70664;51.472;5.712;2024-03-06T15:01:32;4.45;;;2.40;;
42104;SDS011;70664;51.472;5.712;2024-03-06T15:03:59;9.07;;;2.60;;